Brandonville, West Virginia
Current Conditions -  °F | °C
As of 12:53 PM on Friday 28 Nov 2014 (Local Time) from KMGW Reporting Station
Light Snow Light Snow  
Wind Chill: -2°   Ceiling: 4000
Heat Index: -2°   Visibility: 9mi
Dew Point: -8°   Wind: 3mph
Humidity: 63%   Direction: 250°WSW
Pressure: 30.29"   Gusts: NA
Location:  39.6431°N, 79.6244°W
Report Text: KMGW 281753Z 25003KT 9SM -SN OVC040 M02/M08 A3029 RMK AO2 SNE07B26 SLP270 P0000 60002 T10221083 11022 21039 58012
Loading
Personal Weather Stations






























Interactive Weather Map New forecast layout! Learn more

10-Day Weather Forecast

Advertisements
Track Severe Weather on mobile